createdAt,value
2023-02-25T00:01:44.479Z,4.16
2023-02-25T00:04:16.511Z,4.14
2023-02-25T00:06:45.714Z,4.13
2023-02-25T00:09:13.331Z,4.15
2023-02-25T00:11:40.995Z,4.16
2023-02-25T00:14:08.736Z,4.17
2023-02-25T00:16:36.597Z,4.17
2023-02-25T00:19:04.388Z,4.17
2023-02-25T00:21:32.103Z,4.17
2023-02-25T00:24:14.053Z,4.17
2023-02-25T00:26:43.376Z,4.17
2023-02-25T00:29:11.024Z,4.18
2023-02-25T00:31:38.947Z,4.19
2023-02-25T00:34:06.716Z,4.20
2023-02-25T00:36:34.448Z,4.21
2023-02-25T00:39:02.421Z,4.21
2023-02-25T00:41:30.496Z,4.21
2023-02-25T00:43:58.088Z,4.21
2023-02-25T00:46:26.177Z,4.20
2023-02-25T00:48:54.385Z,4.19
2023-02-25T00:51:22.051Z,4.18
2023-02-25T00:53:49.655Z,4.18
2023-02-25T00:56:17.398Z,4.19
2023-02-25T00:58:45.364Z,4.19
2023-02-25T01:01:13.024Z,4.20
2023-02-25T01:03:40.833Z,4.19
2023-02-25T01:06:08.463Z,4.20
2023-02-25T01:08:36.151Z,4.20
2023-02-25T01:11:04.697Z,4.21
2023-02-25T01:13:32.319Z,4.21
2023-02-25T01:16:00.445Z,4.21
2023-02-25T01:18:28.077Z,4.22
2023-02-25T01:20:57.203Z,4.22
2023-02-25T01:23:24.815Z,4.22
2023-02-25T01:25:52.411Z,4.23
2023-02-25T01:28:20.178Z,4.22
2023-02-25T01:30:47.824Z,4.22
2023-02-25T01:33:15.549Z,4.22
2023-02-25T01:35:43.528Z,4.23
2023-02-25T01:38:11.159Z,4.23
2023-02-25T01:40:39.094Z,4.24
2023-02-25T01:43:07.872Z,4.24
2023-02-25T01:45:35.456Z,4.25
2023-02-25T01:48:03.480Z,4.25
2023-02-25T01:50:31.070Z,4.26
2023-02-25T01:53:00.256Z,4.27
2023-02-25T01:55:27.901Z,4.28
2023-02-25T01:57:55.485Z,4.29
2023-02-25T02:00:23.493Z,4.28
2023-02-25T02:02:51.136Z,4.28
2023-02-25T02:05:18.717Z,4.27
2023-02-25T02:07:46.261Z,4.27
2023-02-25T02:10:13.901Z,4.23
2023-02-25T02:12:41.879Z,4.20
2023-02-25T02:15:09.786Z,4.19
2023-02-25T02:17:37.558Z,4.20
2023-02-25T02:20:10.005Z,4.18
2023-02-25T02:22:37.601Z,4.19
2023-02-25T02:25:05.766Z,4.19
2023-02-25T02:27:33.308Z,4.20
2023-02-25T02:30:00.890Z,4.21
2023-02-25T02:32:28.671Z,4.21
2023-02-25T02:34:56.376Z,4.22
2023-02-25T02:37:24.751Z,4.21
2023-02-25T02:39:52.372Z,4.23
2023-02-25T02:42:21.350Z,4.23
2023-02-25T02:44:48.907Z,4.23
2023-02-25T02:47:16.532Z,4.24
2023-02-25T02:49:44.501Z,4.26
2023-02-25T02:52:15.393Z,4.26
2023-02-25T02:54:43.119Z,4.26
2023-02-25T02:57:10.758Z,4.28
2023-02-25T02:59:43.295Z,4.26
2023-02-25T03:02:11.356Z,4.26
2023-02-25T03:04:38.958Z,4.23
2023-02-25T03:07:06.751Z,4.22
2023-02-25T03:09:34.376Z,4.18
2023-02-25T03:12:01.976Z,4.16
2023-02-25T03:14:29.946Z,4.14
2023-02-25T03:16:57.694Z,4.14
2023-02-25T03:19:25.396Z,4.13
2023-02-25T03:21:54.825Z,4.11
2023-02-25T03:24:22.606Z,4.10
2023-02-25T03:26:50.195Z,4.10
2023-02-25T03:29:17.966Z,4.08
2023-02-25T03:31:45.915Z,4.07
2023-02-25T03:34:13.908Z,4.08
2023-02-25T03:36:41.470Z,4.09
2023-02-25T03:39:10.140Z,4.09
2023-02-25T03:41:37.790Z,4.10
2023-02-25T03:44:07.199Z,4.10
2023-02-25T03:46:35.272Z,4.11
2023-02-25T03:49:02.941Z,4.12
2023-02-25T03:51:30.972Z,4.10
2023-02-25T03:53:58.577Z,4.12
2023-02-25T03:56:26.739Z,4.14
2023-02-25T03:58:54.327Z,4.14
2023-02-25T04:01:21.954Z,4.14
2023-02-25T04:03:49.548Z,4.15
2023-02-25T04:06:17.221Z,4.16
2023-02-25T04:08:45.032Z,4.17
2023-02-25T04:11:12.642Z,4.20
2023-02-25T04:13:40.258Z,4.21
2023-02-25T04:16:09.027Z,4.22
2023-02-25T04:18:36.649Z,4.24
2023-02-25T04:21:04.457Z,4.25
2023-02-25T04:23:32.127Z,4.26
2023-02-25T04:25:59.722Z,4.27
2023-02-25T04:28:28.158Z,4.28
2023-02-25T04:30:55.885Z,4.30
2023-02-25T04:33:23.691Z,4.30
2023-02-25T04:35:51.289Z,4.32
2023-02-25T04:38:18.941Z,4.31
2023-02-25T04:40:46.953Z,4.33
2023-02-25T04:43:14.514Z,4.33
2023-02-25T04:45:42.345Z,4.33
2023-02-25T04:48:09.944Z,4.33
2023-02-25T04:50:37.982Z,4.34
2023-02-25T04:53:05.973Z,4.34
2023-02-25T04:55:33.547Z,4.33
2023-02-25T04:58:01.186Z,4.35
2023-02-25T05:00:28.855Z,4.34
2023-02-25T05:02:56.453Z,4.33
2023-02-25T05:05:24.445Z,4.34
2023-02-25T05:07:52.215Z,4.34
2023-02-25T05:10:20.030Z,4.34
2023-02-25T05:12:48.067Z,4.35
2023-02-25T05:15:16.380Z,4.34
2023-02-25T05:17:44.340Z,4.34
2023-02-25T05:20:13.289Z,4.33
2023-02-25T05:22:41.006Z,4.34
2023-02-25T05:25:08.621Z,4.33
2023-02-25T05:27:36.230Z,4.33
2023-02-25T05:30:04.094Z,4.32
2023-02-25T05:32:32.207Z,4.33
2023-02-25T05:35:00.586Z,4.33
2023-02-25T05:37:28.279Z,4.33
2023-02-25T05:39:55.896Z,4.34
2023-02-25T05:42:23.869Z,4.34
2023-02-25T05:44:51.522Z,4.35
2023-02-25T05:47:19.147Z,4.34
2023-02-25T05:49:46.723Z,4.34
2023-02-25T05:52:14.361Z,4.34
2023-02-25T05:54:42.367Z,4.34
2023-02-25T05:57:09.976Z,4.34
2023-02-25T05:59:38.264Z,4.34
2023-02-25T06:02:05.916Z,4.34
2023-02-25T06:04:33.590Z,4.33
2023-02-25T06:07:03.451Z,4.33
2023-02-25T06:09:32.187Z,4.32
2023-02-25T06:11:59.758Z,4.31
2023-02-25T06:14:27.412Z,4.32
2023-02-25T06:16:57.042Z,4.31
2023-02-25T06:19:26.804Z,4.31
2023-02-25T06:21:54.996Z,4.30
2023-02-25T06:24:22.578Z,4.28
2023-02-25T06:26:50.157Z,4.29
2023-02-25T06:29:17.873Z,4.28
2023-02-25T06:31:45.608Z,4.28
2023-02-25T06:34:13.369Z,4.28
2023-02-25T06:36:41.148Z,4.28
2023-02-25T06:39:09.332Z,4.29
2023-02-25T06:41:36.927Z,4.30
2023-02-25T06:44:05.705Z,4.30
2023-02-25T06:46:33.395Z,4.30
2023-02-25T06:49:01.224Z,4.32
2023-02-25T06:51:28.834Z,4.31
2023-02-25T06:53:56.440Z,4.31
2023-02-25T06:56:24.721Z,4.31
2023-02-25T06:58:53.568Z,4.32
2023-02-25T07:01:21.422Z,4.32
2023-02-25T07:03:49.062Z,4.34
2023-02-25T07:06:16.958Z,4.34
2023-02-25T07:08:45.457Z,4.35
2023-02-25T07:11:15.043Z,4.35
2023-02-25T07:13:44.625Z,4.34
2023-02-25T07:16:12.335Z,4.34
2023-02-25T07:18:39.954Z,4.32
2023-02-25T07:21:08.113Z,4.33
2023-02-25T07:23:35.721Z,4.32
2023-02-25T07:26:03.526Z,4.32
2023-02-25T07:28:31.614Z,4.35
2023-02-25T07:30:59.309Z,4.34
2023-02-25T07:33:27.376Z,4.34
2023-02-25T07:35:55.023Z,4.34
2023-02-25T07:38:22.915Z,4.35
2023-02-25T07:40:50.604Z,4.34
2023-02-25T07:43:18.843Z,4.34
2023-02-25T07:45:46.858Z,4.35
2023-02-25T07:48:14.555Z,4.37
2023-02-25T07:50:42.299Z,4.39
2023-02-25T07:53:09.916Z,4.40
2023-02-25T07:55:37.650Z,4.43
2023-02-25T07:58:07.371Z,4.44
2023-02-25T08:00:35.660Z,4.46
2023-02-25T08:03:03.341Z,4.47
2023-02-25T08:05:32.042Z,4.49
2023-02-25T08:07:59.819Z,4.53
2023-02-25T08:10:27.835Z,4.56
2023-02-25T08:12:55.525Z,4.58
2023-02-25T08:15:23.620Z,4.55
2023-02-25T08:17:52.584Z,4.38
2023-02-25T08:20:20.279Z,4.20
2023-02-25T08:22:48.248Z,4.05
2023-02-25T08:25:15.941Z,3.96
2023-02-25T08:27:45.448Z,3.91
2023-02-25T08:30:13.092Z,3.86
2023-02-25T08:32:42.093Z,3.84
2023-02-25T08:35:10.397Z,3.83
2023-02-25T08:37:38.020Z,3.86
2023-02-25T08:40:10.118Z,3.93
2023-02-25T08:42:37.843Z,4.02
2023-02-25T08:45:05.584Z,4.15
2023-02-25T08:47:34.209Z,4.33
2023-02-25T08:50:02.327Z,4.59
2023-02-25T08:52:35.187Z,4.88
2023-02-25T08:55:03.062Z,5.15
2023-02-25T08:57:30.829Z,5.31
2023-02-25T08:59:58.888Z,5.37
2023-02-25T09:02:26.563Z,5.42
2023-02-25T09:04:54.398Z,5.48
2023-02-25T09:07:22.369Z,5.56
2023-02-25T09:09:50.148Z,5.62
2023-02-25T09:12:18.708Z,5.67
2023-02-25T09:14:46.335Z,5.67
2023-02-25T09:17:14.280Z,5.62
2023-02-25T09:19:42.115Z,5.60
2023-02-25T09:22:09.895Z,5.54
2023-02-25T09:24:37.905Z,5.51
2023-02-25T09:27:08.334Z,5.47
2023-02-25T09:29:36.367Z,5.48
2023-02-25T09:32:04.246Z,5.45
2023-02-25T09:34:34.076Z,5.40
2023-02-25T09:37:02.206Z,5.35
2023-02-25T09:39:30.119Z,5.26
2023-02-25T09:41:58.265Z,5.17
2023-02-25T09:44:27.126Z,5.12
2023-02-25T09:46:54.878Z,5.12
2023-02-25T09:49:23.199Z,5.18
2023-02-25T09:51:51.049Z,5.24
2023-02-25T09:54:19.754Z,5.33
2023-02-25T09:56:47.699Z,5.53
2023-02-25T09:59:15.537Z,5.82
2023-02-25T10:01:46.064Z,6.17
2023-02-25T10:04:13.907Z,6.45
2023-02-25T10:06:44.424Z,6.54
2023-02-25T10:09:12.421Z,6.59
2023-02-25T10:11:40.323Z,6.56
2023-02-25T10:14:09.510Z,6.69
2023-02-25T10:16:38.081Z,6.91
2023-02-25T10:19:06.229Z,7.25
2023-02-25T10:21:35.046Z,7.78
2023-02-25T10:24:03.975Z,8.13
2023-02-25T10:26:33.122Z,8.08
2023-02-25T10:29:00.873Z,7.82
2023-02-25T10:31:29.192Z,7.40
2023-02-25T10:33:57.039Z,6.91
2023-02-25T10:36:24.718Z,6.54
2023-02-25T10:38:53.182Z,6.29
2023-02-25T10:41:23.152Z,6.13
2023-02-25T10:43:51.281Z,6.24
2023-02-25T10:46:19.130Z,6.38
2023-02-25T10:48:48.016Z,6.32
2023-02-25T10:51:16.137Z,6.27
2023-02-25T10:53:44.077Z,6.20
2023-02-25T10:56:12.061Z,6.23
2023-02-25T10:58:40.905Z,6.37
2023-02-25T11:01:09.193Z,6.61
2023-02-25T11:03:37.707Z,6.91
2023-02-25T11:06:05.477Z,7.57
2023-02-25T11:08:33.747Z,8.97
2023-02-25T11:11:01.644Z,10.02
2023-02-25T11:13:29.429Z,10.91
2023-02-25T11:15:57.229Z,11.53
2023-02-25T11:18:25.143Z,12.14
2023-02-25T11:20:53.295Z,12.38
2023-02-25T11:23:21.624Z,11.68
2023-02-25T11:25:51.785Z,10.78
2023-02-25T11:28:19.889Z,9.98
2023-02-25T11:30:47.821Z,9.22
2023-02-25T11:33:16.079Z,8.51
2023-02-25T11:35:44.052Z,7.94
2023-02-25T11:38:11.824Z,7.47
2023-02-25T11:40:39.713Z,7.05
2023-02-25T11:43:07.471Z,6.69
2023-02-25T11:45:36.875Z,6.40
2023-02-25T11:48:04.775Z,6.14
2023-02-25T11:50:32.478Z,5.99
2023-02-25T11:53:00.884Z,5.92
2023-02-25T11:55:28.646Z,5.89
2023-02-25T11:57:58.747Z,6.08
2023-02-25T12:00:26.836Z,7.10
2023-02-25T12:02:54.820Z,8.39
2023-02-25T12:05:24.410Z,9.73
2023-02-25T12:08:12.059Z,10.53
2023-02-25T12:10:41.242Z,11.51
2023-02-25T12:13:10.062Z,11.97
2023-02-25T12:15:38.186Z,11.34
2023-02-25T12:18:06.251Z,10.37
2023-02-25T12:20:34.150Z,9.50
2023-02-25T12:23:02.157Z,9.37
2023-02-25T12:25:29.981Z,10.24
2023-02-25T12:27:58.111Z,11.27
2023-02-25T12:30:25.942Z,12.17
2023-02-25T12:32:54.419Z,12.50
2023-02-25T12:35:22.973Z,11.73
2023-02-25T12:37:51.356Z,10.61
2023-02-25T12:40:20.258Z,9.87
2023-02-25T12:42:49.050Z,10.02
2023-02-25T12:45:16.953Z,10.48
2023-02-25T12:47:45.258Z,10.92
2023-02-25T12:50:13.684Z,11.48
2023-02-25T12:52:42.102Z,12.03
2023-02-25T12:55:10.093Z,12.58
2023-02-25T12:57:37.898Z,12.48
2023-02-25T13:00:08.060Z,11.78
2023-02-25T13:02:35.961Z,11.00
2023-02-25T13:05:04.272Z,10.40
2023-02-25T13:07:32.121Z,9.82
2023-02-25T13:09:59.987Z,9.28
2023-02-25T13:12:30.273Z,8.72
2023-02-25T13:14:58.326Z,8.23
2023-02-25T13:17:26.636Z,7.98
2023-02-25T13:19:54.477Z,8.46
2023-02-25T13:22:22.193Z,8.94
2023-02-25T13:24:50.437Z,9.38
2023-02-25T13:27:18.166Z,9.31
2023-02-25T13:29:46.355Z,8.85
2023-02-25T13:32:14.490Z,8.34
2023-02-25T13:34:42.368Z,8.00
2023-02-25T13:37:10.722Z,8.19
2023-02-25T13:39:38.680Z,8.52
2023-02-25T13:42:07.371Z,8.68
2023-02-25T13:44:35.177Z,8.71
2023-02-25T13:47:03.250Z,8.48
2023-02-25T13:49:31.709Z,8.13
2023-02-25T13:52:01.135Z,7.84
2023-02-25T13:54:29.280Z,7.55
2023-02-25T13:56:57.211Z,7.44
2023-02-25T13:59:25.180Z,7.53
2023-02-25T14:01:53.309Z,7.61
2023-02-25T14:04:21.129Z,7.50
2023-02-25T14:06:49.274Z,7.36
2023-02-25T14:09:17.287Z,7.24
2023-02-25T14:11:44.994Z,7.38
2023-02-25T14:14:13.111Z,7.45
2023-02-25T14:16:41.274Z,7.81
2023-02-25T14:19:09.365Z,8.24
2023-02-25T14:21:37.144Z,8.78
2023-02-25T14:24:05.080Z,9.04
2023-02-25T14:26:33.527Z,8.86
2023-02-25T14:29:01.344Z,8.70
2023-02-25T14:31:29.861Z,8.34
2023-02-25T14:33:57.949Z,8.29
2023-02-25T14:36:29.517Z,8.65
2023-02-25T14:38:59.842Z,8.92
2023-02-25T14:41:27.575Z,9.11
2023-02-25T14:43:55.494Z,9.28
2023-02-25T14:46:23.495Z,9.41
2023-02-25T14:48:51.475Z,9.50
2023-02-25T14:51:19.433Z,9.47
2023-02-25T14:53:47.364Z,9.16
2023-02-25T14:56:15.695Z,9.14
2023-02-25T14:58:43.430Z,9.49
2023-02-25T15:01:11.773Z,9.65
2023-02-25T15:03:42.245Z,9.68
2023-02-25T15:06:10.849Z,9.12
2023-02-25T15:08:38.737Z,9.12
2023-02-25T15:11:06.589Z,9.46
2023-02-25T15:13:34.788Z,9.82
2023-02-25T15:16:03.405Z,10.23
2023-02-25T15:18:32.222Z,10.57
2023-02-25T15:21:00.136Z,10.84
2023-02-25T15:23:28.405Z,11.13
2023-02-25T15:25:57.916Z,11.40
2023-02-25T15:28:25.967Z,11.57
2023-02-25T15:30:54.262Z,11.77
2023-02-25T15:33:22.534Z,11.88
2023-02-25T15:35:50.308Z,11.92
2023-02-25T15:38:18.318Z,11.97
2023-02-25T15:40:46.875Z,12.18
2023-02-25T15:43:14.703Z,12.13
2023-02-25T15:45:43.578Z,11.86
2023-02-25T15:48:11.462Z,12.02
2023-02-25T15:50:39.313Z,11.65
2023-02-25T15:53:07.257Z,10.75
2023-02-25T15:55:35.185Z,9.87
2023-02-25T15:58:03.367Z,9.15
2023-02-25T16:00:31.426Z,8.64
2023-02-25T16:03:01.692Z,8.11
2023-02-25T16:05:31.982Z,7.68
2023-02-25T16:08:00.294Z,7.33
2023-02-25T16:10:28.449Z,6.97
2023-02-25T16:12:56.349Z,6.69
2023-02-25T16:15:24.253Z,6.44
2023-02-25T16:17:52.079Z,6.24
2023-02-25T16:20:20.016Z,6.08
2023-02-25T16:22:48.244Z,5.90
2023-02-25T16:25:16.544Z,5.74
2023-02-25T16:27:44.583Z,5.58
2023-02-25T16:30:14.130Z,5.43
2023-02-25T16:32:42.082Z,5.32
2023-02-25T16:35:10.814Z,5.23
2023-02-25T16:37:38.809Z,5.13
2023-02-25T16:40:06.913Z,5.08
2023-02-25T16:42:36.069Z,5.03
2023-02-25T16:45:04.233Z,4.97
2023-02-25T16:47:32.271Z,4.94
2023-02-25T16:50:00.192Z,4.90
2023-02-25T16:52:28.498Z,4.85
2023-02-25T16:54:57.041Z,4.78
2023-02-25T16:57:25.640Z,4.71
2023-02-25T16:59:53.828Z,4.62
2023-02-25T17:02:21.723Z,4.56
2023-02-25T17:04:49.651Z,4.51
2023-02-25T17:07:18.299Z,4.44
2023-02-25T17:09:46.182Z,4.34
2023-02-25T17:12:14.138Z,4.24
2023-02-25T17:14:42.509Z,4.14
2023-02-25T17:17:10.426Z,4.04
2023-02-25T17:19:38.571Z,3.97
2023-02-25T17:22:07.121Z,3.89
2023-02-25T17:24:34.876Z,3.85
2023-02-25T17:27:02.772Z,3.78
2023-02-25T17:29:30.632Z,3.71
2023-02-25T17:31:58.502Z,3.65
2023-02-25T17:34:26.508Z,3.55
2023-02-25T17:36:55.119Z,3.49
2023-02-25T17:39:22.923Z,3.49
2023-02-25T17:41:51.098Z,3.47
2023-02-25T17:44:19.226Z,3.45
2023-02-25T17:46:47.056Z,3.41
2023-02-25T17:49:15.056Z,3.37
2023-02-25T17:51:42.920Z,3.33
2023-02-25T17:54:10.830Z,3.27
2023-02-25T17:56:39.393Z,3.24
2023-02-25T17:59:07.607Z,3.22
2023-02-25T18:01:40.299Z,3.21
2023-02-25T18:04:08.192Z,3.22
2023-02-25T18:06:35.995Z,3.19
2023-02-25T18:09:03.985Z,3.18
2023-02-25T18:11:32.806Z,3.16
2023-02-25T18:14:00.768Z,3.15
2023-02-25T18:16:28.965Z,3.14
2023-02-25T18:18:56.833Z,3.13
2023-02-25T18:21:26.386Z,3.11
2023-02-25T18:23:54.118Z,3.07
2023-02-25T18:26:22.576Z,3.01
2023-02-25T18:28:50.621Z,2.96
2023-02-25T18:31:20.090Z,2.93
2023-02-25T18:33:48.570Z,2.88
2023-02-25T18:36:16.388Z,2.83
2023-02-25T18:38:44.992Z,2.79
2023-02-25T18:41:13.366Z,2.77
2023-02-25T18:43:43.091Z,2.71
2023-02-25T18:46:11.695Z,2.68
2023-02-25T18:48:39.661Z,2.65
2023-02-25T18:51:07.882Z,2.62
2023-02-25T18:53:35.830Z,2.56
2023-02-25T18:56:03.730Z,2.53
2023-02-25T18:58:31.862Z,2.48
2023-02-25T19:00:59.815Z,2.41
2023-02-25T19:03:28.243Z,2.35
2023-02-25T19:05:56.220Z,2.31
2023-02-25T19:08:24.215Z,2.28
2023-02-25T19:10:52.444Z,2.26
2023-02-25T19:13:20.314Z,2.21
2023-02-25T19:15:49.029Z,2.15
2023-02-25T19:18:17.094Z,2.09
2023-02-25T19:20:44.936Z,2.02
2023-02-25T19:23:13.468Z,1.92
2023-02-25T19:25:41.336Z,1.87
2023-02-25T19:28:10.041Z,1.82
2023-02-25T19:30:38.094Z,1.75
2023-02-25T19:33:06.058Z,1.70
2023-02-25T19:35:33.977Z,1.62
2023-02-25T19:38:01.912Z,1.55
2023-02-25T19:40:30.552Z,1.48
2023-02-25T19:42:58.389Z,1.42
2023-02-25T19:45:26.408Z,1.36
2023-02-25T19:47:54.145Z,1.30
2023-02-25T19:50:22.360Z,1.25
2023-02-25T19:52:50.302Z,1.21
2023-02-25T19:55:18.174Z,1.16
2023-02-25T19:57:45.954Z,1.12
2023-02-25T20:00:14.300Z,1.07
2023-02-25T20:02:42.195Z,1.04
2023-02-25T20:05:10.890Z,1.00
2023-02-25T20:07:39.024Z,0.96
2023-02-25T20:10:06.859Z,0.92
2023-02-25T20:12:36.739Z,0.87
2023-02-25T20:15:04.764Z,0.85
2023-02-25T20:17:32.873Z,0.81
2023-02-25T20:20:00.761Z,0.79
2023-02-25T20:22:28.797Z,0.76
2023-02-25T20:24:56.937Z,0.74
2023-02-25T20:27:25.133Z,0.72
2023-02-25T20:29:53.863Z,0.70
2023-02-25T20:32:21.866Z,0.69
2023-02-25T20:34:49.749Z,0.71
2023-02-25T20:37:18.053Z,0.73
2023-02-25T20:39:48.147Z,0.80
2023-02-25T20:42:16.630Z,0.91
2023-02-25T20:44:44.648Z,1.03
2023-02-25T20:47:12.764Z,1.21
2023-02-25T20:49:41.078Z,1.42
2023-02-25T20:52:09.163Z,1.60
2023-02-25T20:54:37.543Z,1.67
2023-02-25T20:57:05.388Z,1.71
2023-02-25T20:59:35.337Z,1.71
2023-02-25T21:02:03.817Z,1.72
2023-02-25T21:04:32.017Z,1.70
2023-02-25T21:07:00.868Z,1.67
2023-02-25T21:09:28.782Z,1.58
2023-02-25T21:11:56.605Z,1.52
2023-02-25T21:14:24.456Z,1.46
2023-02-25T21:16:57.103Z,1.46
2023-02-25T21:19:25.583Z,1.47
2023-02-25T21:21:53.529Z,1.49
2023-02-25T21:24:21.392Z,1.54
2023-02-25T21:26:49.274Z,1.57
2023-02-25T21:29:17.312Z,1.58
2023-02-25T21:31:46.274Z,1.60
2023-02-25T21:34:15.055Z,1.61
2023-02-25T21:36:43.177Z,1.61
2023-02-25T21:39:12.782Z,1.61
2023-02-25T21:41:44.372Z,1.63
2023-02-25T21:44:13.096Z,1.63
2023-02-25T21:46:40.916Z,1.59
2023-02-25T21:49:10.813Z,1.48
2023-02-25T21:51:40.554Z,1.38
2023-02-25T21:54:08.488Z,1.26
2023-02-25T21:56:36.568Z,1.16
2023-02-25T21:59:05.695Z,1.07
2023-02-25T22:01:33.601Z,0.97
2023-02-25T22:04:01.688Z,0.89
2023-02-25T22:06:29.526Z,0.80
2023-02-25T22:08:57.685Z,0.78
2023-02-25T22:11:25.476Z,0.77
2023-02-25T22:13:53.470Z,0.75
2023-02-25T22:16:21.601Z,0.71
2023-02-25T22:18:49.397Z,0.69
2023-02-25T22:21:18.031Z,0.67
2023-02-25T22:23:45.813Z,0.64
2023-02-25T22:26:13.678Z,0.59
2023-02-25T22:28:41.580Z,0.57
2023-02-25T22:31:09.547Z,0.59
2023-02-25T22:33:37.678Z,0.63
2023-02-25T22:36:05.615Z,0.65
2023-02-25T22:38:33.480Z,0.66
2023-02-25T22:41:02.209Z,0.65
2023-02-25T22:43:30.495Z,0.67
2023-02-25T22:45:58.903Z,0.68
2023-02-25T22:48:26.681Z,0.70
2023-02-25T22:50:54.558Z,0.69
2023-02-25T22:53:22.527Z,0.70
2023-02-25T22:55:50.218Z,0.68
2023-02-25T22:58:18.669Z,0.69
2023-02-25T23:00:46.482Z,0.70
2023-02-25T23:03:15.841Z,0.70
2023-02-25T23:05:43.640Z,0.69
2023-02-25T23:08:11.538Z,0.67
2023-02-25T23:10:40.492Z,0.65
2023-02-25T23:13:09.237Z,0.62
2023-02-25T23:15:37.197Z,0.61
2023-02-25T23:18:06.064Z,0.57
2023-02-25T23:20:33.844Z,0.53
2023-02-25T23:23:05.499Z,0.50
2023-02-25T23:25:33.403Z,0.49
2023-02-25T23:28:01.757Z,0.48
2023-02-25T23:30:29.926Z,0.49
2023-02-25T23:32:57.676Z,0.46
2023-02-25T23:35:25.920Z,0.43
2023-02-25T23:37:53.872Z,0.43
2023-02-25T23:40:21.903Z,0.38
2023-02-25T23:42:50.171Z,0.34
2023-02-25T23:45:17.915Z,0.33
2023-02-25T23:47:46.048Z,0.33
2023-02-25T23:50:15.328Z,0.32
2023-02-25T23:52:42.969Z,0.34
2023-02-25T23:55:11.789Z,0.34
2023-02-25T23:57:39.536Z,0.34
